Terminal Aerodrome Forecast
Issued by NWS Wakefield, VA

Home | Current Version | Previous Version | Text Only | Print | Product List | Glossary On
Versions: 1 2 3 4 5 6 7 8 9 10 11 12 13 14 15
000
FTUS41 KAKQ 190500
TAFSBY
TAF
KSBY 190520Z 1906/2006 00000KT P6SM BKN070
     FM191300 06008KT P6SM SCT050 BKN100
     FM192100 10004KT P6SM SCT100=

USA.gov is the U.S. government's official web portal to all federal, state and local government web resources and services.